<?xml version="1.0" encoding="UTF-8" standalone="no" ?>
<gpx xmlns="http://www.topografix.com/GPX/1/1" xmlns:xsi="http://www.w3.org/2001/XMLSchema-instance" xsi:schemaLocation="http://www.topografix.com/GPX/1/1 http://www.topografix.com/GPX/1/1/gpx.xsd" version="1.1" creator="VisuGPX - https://www.visugpx.com">
  <metadata>
    <name>31-07-2011</name>
    <desc><![CDATA[Millery 69390]]></desc>
  </metadata>
  <trk>
    <name><![CDATA[31-07-2011_1]]></name>
    <trkseg>
      <trkpt lat="45.63697" lon="4.78064">
        <ele>281.5</ele>
        <time>2011-07-31T09:43:46Z</time>
      </trkpt>
      <trkpt lat="45.63685" lon="4.78057">
        <ele>282</ele>
        <time>2011-07-31T09:43:47Z</time>
      </trkpt>
      <trkpt lat="45.63685" lon="4.78057">
        <ele>282</ele>
        <time>2011-07-31T09:43:50Z</time>
      </trkpt>
      <trkpt lat="45.63685" lon="4.78057">
        <ele>282</ele>
        <time>2011-07-31T09:43:54Z</time>
      </trkpt>
      <trkpt lat="45.63685" lon="4.78057">
        <ele>282</ele>
        <time>2011-07-31T09:44:07Z</time>
      </trkpt>
      <trkpt lat="45.63686" lon="4.78044">
        <ele>282.1</ele>
        <time>2011-07-31T09:44:13Z</time>
      </trkpt>
      <trkpt lat="45.63688" lon="4.78029">
        <ele>282.2</ele>
        <time>2011-07-31T09:44:17Z</time>
      </trkpt>
      <trkpt lat="45.63688" lon="4.78029">
        <ele>282.2</ele>
        <time>2011-07-31T09:44:26Z</time>
      </trkpt>
      <trkpt lat="45.6369" lon="4.78016">
        <ele>282.7</ele>
        <time>2011-07-31T09:44:30Z</time>
      </trkpt>
      <trkpt lat="45.63691" lon="4.77982">
        <ele>283.9</ele>
        <time>2011-07-31T09:44:37Z</time>
      </trkpt>
      <trkpt lat="45.63697" lon="4.77941">
        <ele>285</ele>
        <time>2011-07-31T09:44:46Z</time>
      </trkpt>
      <trkpt lat="45.63704" lon="4.77888">
        <ele>286.4</ele>
        <time>2011-07-31T09:45:00Z</time>
      </trkpt>
      <trkpt lat="45.63714" lon="4.77855">
        <ele>286.9</ele>
        <time>2011-07-31T09:45:10Z</time>
      </trkpt>
      <trkpt lat="45.63723" lon="4.7784">
        <ele>287</ele>
        <time>2011-07-31T09:45:17Z</time>
      </trkpt>
      <trkpt lat="45.63738" lon="4.77828">
        <ele>287.6</ele>
        <time>2011-07-31T09:45:25Z</time>
      </trkpt>
      <trkpt lat="45.63742" lon="4.77823">
        <ele>287.7</ele>
        <time>2011-07-31T09:45:32Z</time>
      </trkpt>
      <trkpt lat="45.6375" lon="4.77817">
        <ele>288</ele>
        <time>2011-07-31T09:45:36Z</time>
      </trkpt>
      <trkpt lat="45.63765" lon="4.77797">
        <ele>288.5</ele>
        <time>2011-07-31T09:45:45Z</time>
      </trkpt>
      <trkpt lat="45.63765" lon="4.77797">
        <ele>288.5</ele>
        <time>2011-07-31T09:45:49Z</time>
      </trkpt>
      <trkpt lat="45.63776" lon="4.77774">
        <ele>288.7</ele>
        <time>2011-07-31T09:45:53Z</time>
      </trkpt>
      <trkpt lat="45.63784" lon="4.77742">
        <ele>286.7</ele>
        <time>2011-07-31T09:46:05Z</time>
      </trkpt>
      <trkpt lat="45.63792" lon="4.77712">
        <ele>285.3</ele>
        <time>2011-07-31T09:46:19Z</time>
      </trkpt>
      <trkpt lat="45.63792" lon="4.77712">
        <ele>285.3</ele>
        <time>2011-07-31T09:46:23Z</time>
      </trkpt>
      <trkpt lat="45.63792" lon="4.77712">
        <ele>285.3</ele>
        <time>2011-07-31T09:46:27Z</time>
      </trkpt>
      <trkpt lat="45.63792" lon="4.77712">
        <ele>285.3</ele>
        <time>2011-07-31T09:46:30Z</time>
      </trkpt>
      <trkpt lat="45.63812" lon="4.77686">
        <ele>284.3</ele>
        <time>2011-07-31T09:46:37Z</time>
      </trkpt>
      <trkpt lat="45.63827" lon="4.77667">
        <ele>283.8</ele>
        <time>2011-07-31T09:46:49Z</time>
      </trkpt>
      <trkpt lat="45.63846" lon="4.77654">
        <ele>283.5</ele>
        <time>2011-07-31T09:46:53Z</time>
      </trkpt>
      <trkpt lat="45.63865" lon="4.77634">
        <ele>282.8</ele>
        <time>2011-07-31T09:47:00Z</time>
      </trkpt>
      <trkpt lat="45.63874" lon="4.77628">
        <ele>282.5</ele>
        <time>2011-07-31T09:47:07Z</time>
      </trkpt>
      <trkpt lat="45.639" lon="4.77611">
        <ele>281</ele>
        <time>2011-07-31T09:47:24Z</time>
      </trkpt>
      <trkpt lat="45.63921" lon="4.77602">
        <ele>280.7</ele>
        <time>2011-07-31T09:47:30Z</time>
      </trkpt>
      <trkpt lat="45.63971" lon="4.77576">
        <ele>280.7</ele>
        <time>2011-07-31T09:47:45Z</time>
      </trkpt>
      <trkpt lat="45.6398" lon="4.77568">
        <ele>280.7</ele>
        <time>2011-07-31T09:47:49Z</time>
      </trkpt>
      <trkpt lat="45.63986" lon="4.77559">
        <ele>280.6</ele>
        <time>2011-07-31T09:47:57Z</time>
      </trkpt>
      <trkpt lat="45.63994" lon="4.77549">
        <ele>280.5</ele>
        <time>2011-07-31T09:48:00Z</time>
      </trkpt>
      <trkpt lat="45.64011" lon="4.77516">
        <ele>280.6</ele>
        <time>2011-07-31T09:48:10Z</time>
      </trkpt>
      <trkpt lat="45.64042" lon="4.77454">
        <ele>280.7</ele>
        <time>2011-07-31T09:48:26Z</time>
      </trkpt>
      <trkpt lat="45.64059" lon="4.77428">
        <ele>280.4</ele>
        <time>2011-07-31T09:48:35Z</time>
      </trkpt>
      <trkpt lat="45.64088" lon="4.77392">
        <ele>279.9</ele>
        <time>2011-07-31T09:48:48Z</time>
      </trkpt>
      <trkpt lat="45.64124" lon="4.77353">
        <ele>277.4</ele>
        <time>2011-07-31T09:49:05Z</time>
      </trkpt>
      <trkpt lat="45.64159" lon="4.77313">
        <ele>275.3</ele>
        <time>2011-07-31T09:49:21Z</time>
      </trkpt>
      <trkpt lat="45.64236" lon="4.77229">
        <ele>268.4</ele>
        <time>2011-07-31T09:49:55Z</time>
      </trkpt>
      <trkpt lat="45.64246" lon="4.77225">
        <ele>268.2</ele>
        <time>2011-07-31T09:49:59Z</time>
      </trkpt>
      <trkpt lat="45.6427" lon="4.77214">
        <ele>266.1</ele>
        <time>2011-07-31T09:50:12Z</time>
      </trkpt>
      <trkpt lat="45.64285" lon="4.77203">
        <ele>264.2</ele>
        <time>2011-07-31T09:50:20Z</time>
      </trkpt>
      <trkpt lat="45.64306" lon="4.77186">
        <ele>262.4</ele>
        <time>2011-07-31T09:50:28Z</time>
      </trkpt>
      <trkpt lat="45.6434" lon="4.77154">
        <ele>260.7</ele>
        <time>2011-07-31T09:50:39Z</time>
      </trkpt>
      <trkpt lat="45.64355" lon="4.77134">
        <ele>259.5</ele>
        <time>2011-07-31T09:50:45Z</time>
      </trkpt>
      <trkpt lat="45.64367" lon="4.77113">
        <ele>258.1</ele>
        <time>2011-07-31T09:50:51Z</time>
      </trkpt>
      <trkpt lat="45.64393" lon="4.77072">
        <ele>254.8</ele>
        <time>2011-07-31T09:51:07Z</time>
      </trkpt>
      <trkpt lat="45.64408" lon="4.77055">
        <ele>253</ele>
        <time>2011-07-31T09:51:14Z</time>
      </trkpt>
      <trkpt lat="45.64442" lon="4.77014">
        <ele>249.1</ele>
        <time>2011-07-31T09:51:30Z</time>
      </trkpt>
      <trkpt lat="45.64442" lon="4.77012">
        <ele>248.9</ele>
        <time>2011-07-31T09:51:34Z</time>
      </trkpt>
      <trkpt lat="45.64445" lon="4.77006">
        <ele>248.5</ele>
        <time>2011-07-31T09:51:36Z</time>
      </trkpt>
      <trkpt lat="45.64455" lon="4.76993">
        <ele>247.8</ele>
        <time>2011-07-31T09:51:42Z</time>
      </trkpt>
      <trkpt lat="45.64478" lon="4.76956">
        <ele>247</ele>
        <time>2011-07-31T09:51:53Z</time>
      </trkpt>
      <trkpt lat="45.64498" lon="4.76924">
        <ele>245.4</ele>
        <time>2011-07-31T09:52:07Z</time>
      </trkpt>
      <trkpt lat="45.64509" lon="4.76907">
        <ele>244.3</ele>
        <time>2011-07-31T09:52:11Z</time>
      </trkpt>
      <trkpt lat="45.64537" lon="4.76866">
        <ele>241.9</ele>
        <time>2011-07-31T09:52:24Z</time>
      </trkpt>
      <trkpt lat="45.64559" lon="4.76838">
        <ele>240</ele>
        <time>2011-07-31T09:52:38Z</time>
      </trkpt>
      <trkpt lat="45.64577" lon="4.76817">
        <ele>238.6</ele>
        <time>2011-07-31T09:52:51Z</time>
      </trkpt>
      <trkpt lat="45.64577" lon="4.76817">
        <ele>238.6</ele>
        <time>2011-07-31T09:52:55Z</time>
      </trkpt>
      <trkpt lat="45.64585" lon="4.76806">
        <ele>237.8</ele>
        <time>2011-07-31T09:52:59Z</time>
      </trkpt>
      <trkpt lat="45.64597" lon="4.76793">
        <ele>235.6</ele>
        <time>2011-07-31T09:53:03Z</time>
      </trkpt>
      <trkpt lat="45.64606" lon="4.76787">
        <ele>234.1</ele>
        <time>2011-07-31T09:53:11Z</time>
      </trkpt>
      <trkpt lat="45.64624" lon="4.76776">
        <ele>232.1</ele>
        <time>2011-07-31T09:53:15Z</time>
      </trkpt>
      <trkpt lat="45.64636" lon="4.76772">
        <ele>231.2</ele>
        <time>2011-07-31T09:53:19Z</time>
      </trkpt>
      <trkpt lat="45.64679" lon="4.76761">
        <ele>229</ele>
        <time>2011-07-31T09:53:28Z</time>
      </trkpt>
      <trkpt lat="45.64713" lon="4.76757">
        <ele>226.2</ele>
        <time>2011-07-31T09:53:36Z</time>
      </trkpt>
      <trkpt lat="45.64752" lon="4.76748">
        <ele>221.9</ele>
        <time>2011-07-31T09:53:48Z</time>
      </trkpt>
      <trkpt lat="45.64766" lon="4.76744">
        <ele>220.4</ele>
        <time>2011-07-31T09:53:58Z</time>
      </trkpt>
      <trkpt lat="45.64776" lon="4.76737">
        <ele>219.2</ele>
        <time>2011-07-31T09:54:02Z</time>
      </trkpt>
      <trkpt lat="45.64794" lon="4.76729">
        <ele>217.4</ele>
        <time>2011-07-31T09:54:10Z</time>
      </trkpt>
      <trkpt lat="45.6483" lon="4.76712">
        <ele>212.8</ele>
        <time>2011-07-31T09:54:24Z</time>
      </trkpt>
      <trkpt lat="45.64899" lon="4.76682">
        <ele>203.9</ele>
        <time>2011-07-31T09:54:48Z</time>
      </trkpt>
      <trkpt lat="45.64922" lon="4.76675">
        <ele>201.5</ele>
        <time>2011-07-31T09:54:55Z</time>
      </trkpt>
      <trkpt lat="45.64943" lon="4.76665">
        <ele>199.2</ele>
        <time>2011-07-31T09:55:03Z</time>
      </trkpt>
      <trkpt lat="45.64977" lon="4.76649">
        <ele>196.9</ele>
        <time>2011-07-31T09:55:19Z</time>
      </trkpt>
      <trkpt lat="45.64984" lon="4.76641">
        <ele>197</ele>
        <time>2011-07-31T09:55:27Z</time>
      </trkpt>
      <trkpt lat="45.64973" lon="4.76624">
        <ele>197</ele>
        <time>2011-07-31T09:55:31Z</time>
      </trkpt>
      <trkpt lat="45.64967" lon="4.76619">
        <ele>197.2</ele>
        <time>2011-07-31T09:55:34Z</time>
      </trkpt>
      <trkpt lat="45.64954" lon="4.76615">
        <ele>197.7</ele>
        <time>2011-07-31T09:55:40Z</time>
      </trkpt>
      <trkpt lat="45.64943" lon="4.76607">
        <ele>198</ele>
        <time>2011-07-31T09:55:44Z</time>
      </trkpt>
      <trkpt lat="45.64913" lon="4.76587">
        <ele>199.4</ele>
        <time>2011-07-31T09:55:57Z</time>
      </trkpt>
      <trkpt lat="45.64893" lon="4.76574">
        <ele>199.6</ele>
        <time>2011-07-31T09:56:09Z</time>
      </trkpt>
      <trkpt lat="45.64866" lon="4.76559">
        <ele>201.7</ele>
        <time>2011-07-31T09:56:22Z</time>
      </trkpt>
      <trkpt lat="45.64866" lon="4.76559">
        <ele>201.7</ele>
        <time>2011-07-31T09:56:26Z</time>
      </trkpt>
      <trkpt lat="45.64855" lon="4.76555">
        <ele>202.3</ele>
        <time>2011-07-31T09:56:30Z</time>
      </trkpt>
      <trkpt lat="45.64845" lon="4.76555">
        <ele>203</ele>
        <time>2011-07-31T09:56:32Z</time>
      </trkpt>
      <trkpt lat="45.64835" lon="4.76551">
        <ele>202.9</ele>
        <time>2011-07-31T09:56:35Z</time>
      </trkpt>
      <trkpt lat="45.64817" lon="4.76538">
        <ele>201.7</ele>
        <time>2011-07-31T09:56:43Z</time>
      </trkpt>
      <trkpt lat="45.64817" lon="4.76538">
        <ele>201.7</ele>
        <time>2011-07-31T09:56:48Z</time>
      </trkpt>
      <trkpt lat="45.6481" lon="4.76521">
        <ele>200.4</ele>
        <time>2011-07-31T09:56:54Z</time>
      </trkpt>
      <trkpt lat="45.64804" lon="4.76497">
        <ele>198</ele>
        <time>2011-07-31T09:56:59Z</time>
      </trkpt>
      <trkpt lat="45.64787" lon="4.76465">
        <ele>199.3</ele>
        <time>2011-07-31T09:57:03Z</time>
      </trkpt>
      <trkpt lat="45.64777" lon="4.76454">
        <ele>200.7</ele>
        <time>2011-07-31T09:57:05Z</time>
      </trkpt>
      <trkpt lat="45.64741" lon="4.76418">
        <ele>200.7</ele>
        <time>2011-07-31T09:57:17Z</time>
      </trkpt>
      <trkpt lat="45.64712" lon="4.76388">
        <ele>201.7</ele>
        <time>2011-07-31T09:57:31Z</time>
      </trkpt>
      <trkpt lat="45.64679" lon="4.76349">
        <ele>202.7</ele>
        <time>2011-07-31T09:57:47Z</time>
      </trkpt>
      <trkpt lat="45.64642" lon="4.7631">
        <ele>203.9</ele>
        <time>2011-07-31T09:58:04Z</time>
      </trkpt>
      <trkpt lat="45.6463" lon="4.76293">
        <ele>204.5</ele>
        <time>2011-07-31T09:58:12Z</time>
      </trkpt>
      <trkpt lat="45.64616" lon="4.76276">
        <ele>205.4</ele>
        <time>2011-07-31T09:58:23Z</time>
      </trkpt>
      <trkpt lat="45.64607" lon="4.76268">
        <ele>206.3</ele>
        <time>2011-07-31T09:58:25Z</time>
      </trkpt>
      <trkpt lat="45.64607" lon="4.76268">
        <ele>206.3</ele>
        <time>2011-07-31T09:58:29Z</time>
      </trkpt>
      <trkpt lat="45.64607" lon="4.76268">
        <ele>206.3</ele>
        <time>2011-07-31T09:58:33Z</time>
      </trkpt>
      <trkpt lat="45.64618" lon="4.76276">
        <ele>205.2</ele>
        <time>2011-07-31T09:58:38Z</time>
      </trkpt>
      <trkpt lat="45.64622" lon="4.7628">
        <ele>204.9</ele>
        <time>2011-07-31T09:58:40Z</time>
      </trkpt>
      <trkpt lat="45.64668" lon="4.76332">
        <ele>202.9</ele>
        <time>2011-07-31T09:59:04Z</time>
      </trkpt>
      <trkpt lat="45.64709" lon="4.76379">
        <ele>201.6</ele>
        <time>2011-07-31T09:59:30Z</time>
      </trkpt>
      <trkpt lat="45.64717" lon="4.76386">
        <ele>201.3</ele>
        <time>2011-07-31T09:59:32Z</time>
      </trkpt>
      <trkpt lat="45.64717" lon="4.76386">
        <ele>201.3</ele>
        <time>2011-07-31T09:59:37Z</time>
      </trkpt>
      <trkpt lat="45.64727" lon="4.76401">
        <ele>201.1</ele>
        <time>2011-07-31T09:59:40Z</time>
      </trkpt>
      <trkpt lat="45.6473" lon="4.76407">
        <ele>201.1</ele>
        <time>2011-07-31T09:59:43Z</time>
      </trkpt>
      <trkpt lat="45.64742" lon="4.76422">
        <ele>201</ele>
        <time>2011-07-31T09:59:49Z</time>
      </trkpt>
      <trkpt lat="45.6476" lon="4.76439">
        <ele>200.8</ele>
        <time>2011-07-31T09:59:59Z</time>
      </trkpt>
      <trkpt lat="45.6479" lon="4.76463">
        <ele>198.5</ele>
        <time>2011-07-31T10:00:17Z</time>
      </trkpt>
      <trkpt lat="45.64801" lon="4.76476">
        <ele>196.5</ele>
        <time>2011-07-31T10:00:22Z</time>
      </trkpt>
      <trkpt lat="45.64804" lon="4.76508">
        <ele>199.5</ele>
        <time>2011-07-31T10:00:31Z</time>
      </trkpt>
      <trkpt lat="45.64795" lon="4.76519">
        <ele>202.5</ele>
        <time>2011-07-31T10:00:35Z</time>
      </trkpt>
      <trkpt lat="45.64771" lon="4.76542">
        <ele>208.1</ele>
        <time>2011-07-31T10:00:46Z</time>
      </trkpt>
      <trkpt lat="45.64762" lon="4.76549">
        <ele>209.6</ele>
        <time>2011-07-31T10:00:54Z</time>
      </trkpt>
      <trkpt lat="45.6475" lon="4.76555">
        <ele>211</ele>
        <time>2011-07-31T10:00:58Z</time>
      </trkpt>
      <trkpt lat="45.64739" lon="4.76557">
        <ele>211.6</ele>
        <time>2011-07-31T10:01:03Z</time>
      </trkpt>
      <trkpt lat="45.6472" lon="4.76562">
        <ele>212.7</ele>
        <time>2011-07-31T10:01:14Z</time>
      </trkpt>
      <trkpt lat="45.6472" lon="4.76562">
        <ele>212.7</ele>
        <time>2011-07-31T10:01:19Z</time>
      </trkpt>
      <trkpt lat="45.64689" lon="4.76557">
        <ele>212.2</ele>
        <time>2011-07-31T10:01:24Z</time>
      </trkpt>
      <trkpt lat="45.64678" lon="4.76553">
        <ele>211.9</ele>
        <time>2011-07-31T10:01:26Z</time>
      </trkpt>
      <trkpt lat="45.64669" lon="4.76551">
        <ele>211.8</ele>
        <time>2011-07-31T10:01:32Z</time>
      </trkpt>
      <trkpt lat="45.64648" lon="4.76544">
        <ele>211.6</ele>
        <time>2011-07-31T10:01:36Z</time>
      </trkpt>
      <trkpt lat="45.64636" lon="4.7654">
        <ele>211.5</ele>
        <time>2011-07-31T10:01:43Z</time>
      </trkpt>
      <trkpt lat="45.64625" lon="4.76534">
        <ele>211.3</ele>
        <time>2011-07-31T10:01:47Z</time>
      </trkpt>
      <trkpt lat="45.64611" lon="4.76529">
        <ele>211.1</ele>
        <time>2011-07-31T10:01:51Z</time>
      </trkpt>
      <trkpt lat="45.64588" lon="4.76527">
        <ele>210.2</ele>
        <time>2011-07-31T10:01:57Z</time>
      </trkpt>
      <trkpt lat="45.64581" lon="4.76529">
        <ele>210.1</ele>
        <time>2011-07-31T10:01:59Z</time>
      </trkpt>
      <trkpt lat="45.64565" lon="4.76531">
        <ele>210.3</ele>
        <time>2011-07-31T10:02:08Z</time>
      </trkpt>
      <trkpt lat="45.64547" lon="4.76534">
        <ele>210.6</ele>
        <time>2011-07-31T10:02:11Z</time>
      </trkpt>
      <trkpt lat="45.64526" lon="4.76538">
        <ele>210.7</ele>
        <time>2011-07-31T10:02:20Z</time>
      </trkpt>
      <trkpt lat="45.64515" lon="4.7654">
        <ele>210.4</ele>
        <time>2011-07-31T10:02:29Z</time>
      </trkpt>
      <trkpt lat="45.64504" lon="4.76542">
        <ele>210.2</ele>
        <time>2011-07-31T10:02:33Z</time>
      </trkpt>
      <trkpt lat="45.64473" lon="4.76549">
        <ele>209.8</ele>
        <time>2011-07-31T10:02:41Z</time>
      </trkpt>
      <trkpt lat="45.6444" lon="4.76559">
        <ele>209</ele>
        <time>2011-07-31T10:02:49Z</time>
      </trkpt>
      <trkpt lat="45.64414" lon="4.76572">
        <ele>208.5</ele>
        <time>2011-07-31T10:02:59Z</time>
      </trkpt>
      <trkpt lat="45.64411" lon="4.76579">
        <ele>208.7</ele>
        <time>2011-07-31T10:03:06Z</time>
      </trkpt>
      <trkpt lat="45.64408" lon="4.76594">
        <ele>209</ele>
        <time>2011-07-31T10:03:09Z</time>
      </trkpt>
      <trkpt lat="45.64398" lon="4.76611">
        <ele>208.7</ele>
        <time>2011-07-31T10:03:19Z</time>
      </trkpt>
      <trkpt lat="45.6439" lon="4.76619">
        <ele>208.6</ele>
        <time>2011-07-31T10:03:23Z</time>
      </trkpt>
      <trkpt lat="45.6437" lon="4.76626">
        <ele>208.7</ele>
        <time>2011-07-31T10:03:27Z</time>
      </trkpt>
      <trkpt lat="45.64361" lon="4.76624">
        <ele>208.5</ele>
        <time>2011-07-31T10:03:31Z</time>
      </trkpt>
      <trkpt lat="45.64352" lon="4.76622">
        <ele>208.2</ele>
        <time>2011-07-31T10:03:37Z</time>
      </trkpt>
      <trkpt lat="45.64345" lon="4.76624">
        <ele>208.2</ele>
        <time>2011-07-31T10:03:39Z</time>
      </trkpt>
      <trkpt lat="45.64331" lon="4.76624">
        <ele>207.9</ele>
        <time>2011-07-31T10:03:45Z</time>
      </trkpt>
      <trkpt lat="45.64308" lon="4.76628">
        <ele>208.2</ele>
        <time>2011-07-31T10:03:53Z</time>
      </trkpt>
      <trkpt lat="45.64292" lon="4.76634">
        <ele>208.7</ele>
        <time>2011-07-31T10:03:59Z</time>
      </trkpt>
      <trkpt lat="45.64281" lon="4.76634">
        <ele>208.8</ele>
        <time>2011-07-31T10:04:04Z</time>
      </trkpt>
      <trkpt lat="45.64261" lon="4.76639">
        <ele>208.4</ele>
        <time>2011-07-31T10:04:13Z</time>
      </trkpt>
      <trkpt lat="45.64245" lon="4.76641">
        <ele>208.1</ele>
        <time>2011-07-31T10:04:17Z</time>
      </trkpt>
      <trkpt lat="45.64209" lon="4.76643">
        <ele>208.1</ele>
        <time>2011-07-31T10:04:31Z</time>
      </trkpt>
      <trkpt lat="45.64192" lon="4.76647">
        <ele>207.9</ele>
        <time>2011-07-31T10:04:41Z</time>
      </trkpt>
      <trkpt lat="45.64185" lon="4.76647">
        <ele>207.8</ele>
        <time>2011-07-31T10:04:43Z</time>
      </trkpt>
      <trkpt lat="45.64171" lon="4.76656">
        <ele>207.7</ele>
        <time>2011-07-31T10:04:52Z</time>
      </trkpt>
      <trkpt lat="45.64167" lon="4.76665">
        <ele>207.9</ele>
        <time>2011-07-31T10:04:56Z</time>
      </trkpt>
      <trkpt lat="45.64164" lon="4.76682">
        <ele>208</ele>
        <time>2011-07-31T10:05:04Z</time>
      </trkpt>
      <trkpt lat="45.64164" lon="4.76682">
        <ele>208</ele>
        <time>2011-07-31T10:05:06Z</time>
      </trkpt>
      <trkpt lat="45.64163" lon="4.76701">
        <ele>208</ele>
        <time>2011-07-31T10:05:11Z</time>
      </trkpt>
      <trkpt lat="45.64157" lon="4.76742">
        <ele>208.8</ele>
        <time>2011-07-31T10:05:22Z</time>
      </trkpt>
      <trkpt lat="45.64152" lon="4.76752">
        <ele>209</ele>
        <time>2011-07-31T10:05:25Z</time>
      </trkpt>
      <trkpt lat="45.64144" lon="4.76759">
        <ele>209.1</ele>
        <time>2011-07-31T10:05:28Z</time>
      </trkpt>
      <trkpt lat="45.64136" lon="4.76761">
        <ele>208.8</ele>
        <time>2011-07-31T10:05:30Z</time>
      </trkpt>
      <trkpt lat="45.64102" lon="4.76774">
        <ele>207.8</ele>
        <time>2011-07-31T10:05:40Z</time>
      </trkpt>
      <trkpt lat="45.64079" lon="4.76776">
        <ele>207.7</ele>
        <time>2011-07-31T10:05:48Z</time>
      </trkpt>
      <trkpt lat="45.64027" lon="4.7678">
        <ele>207</ele>
        <time>2011-07-31T10:06:09Z</time>
      </trkpt>
      <trkpt lat="45.64012" lon="4.76787">
        <ele>206.8</ele>
        <time>2011-07-31T10:06:13Z</time>
      </trkpt>
      <trkpt lat="45.63993" lon="4.76795">
        <ele>206.3</ele>
        <time>2011-07-31T10:06:23Z</time>
      </trkpt>
      <trkpt lat="45.63985" lon="4.768">
        <ele>206.1</ele>
        <time>2011-07-31T10:06:25Z</time>
      </trkpt>
      <trkpt lat="45.63956" lon="4.76813">
        <ele>206.4</ele>
        <time>2011-07-31T10:06:35Z</time>
      </trkpt>
      <trkpt lat="45.63915" lon="4.7683">
        <ele>206.1</ele>
        <time>2011-07-31T10:06:50Z</time>
      </trkpt>
      <trkpt lat="45.63895" lon="4.76834">
        <ele>206</ele>
        <time>2011-07-31T10:07:01Z</time>
      </trkpt>
      <trkpt lat="45.63893" lon="4.76834">
        <ele>206</ele>
        <time>2011-07-31T10:07:07Z</time>
      </trkpt>
      <trkpt lat="45.63874" lon="4.7684">
        <ele>206.4</ele>
        <time>2011-07-31T10:07:11Z</time>
      </trkpt>
      <trkpt lat="45.63867" lon="4.76843">
        <ele>206.5</ele>
        <time>2011-07-31T10:07:13Z</time>
      </trkpt>
      <trkpt lat="45.63845" lon="4.76849">
        <ele>205.9</ele>
        <time>2011-07-31T10:07:23Z</time>
      </trkpt>
      <trkpt lat="45.63822" lon="4.76858">
        <ele>205.8</ele>
        <time>2011-07-31T10:07:29Z</time>
      </trkpt>
      <trkpt lat="45.63785" lon="4.76873">
        <ele>206.4</ele>
        <time>2011-07-31T10:07:42Z</time>
      </trkpt>
      <trkpt lat="45.63756" lon="4.76879">
        <ele>206.6</ele>
        <time>2011-07-31T10:07:51Z</time>
      </trkpt>
      <trkpt lat="45.63715" lon="4.76888">
        <ele>206</ele>
        <time>2011-07-31T10:08:08Z</time>
      </trkpt>
      <trkpt lat="45.63708" lon="4.76888">
        <ele>206</ele>
        <time>2011-07-31T10:08:15Z</time>
      </trkpt>
      <trkpt lat="45.63692" lon="4.76886">
        <ele>206</ele>
        <time>2011-07-31T10:08:20Z</time>
      </trkpt>
      <trkpt lat="45.63687" lon="4.76888">
        <ele>206</ele>
        <time>2011-07-31T10:08:22Z</time>
      </trkpt>
      <trkpt lat="45.63673" lon="4.7689">
        <ele>206</ele>
        <time>2011-07-31T10:08:27Z</time>
      </trkpt>
      <trkpt lat="45.63637" lon="4.76898">
        <ele>205</ele>
        <time>2011-07-31T10:08:38Z</time>
      </trkpt>
      <trkpt lat="45.63611" lon="4.76907">
        <ele>204.6</ele>
        <time>2011-07-31T10:08:50Z</time>
      </trkpt>
      <trkpt lat="45.63594" lon="4.76909">
        <ele>204.1</ele>
        <time>2011-07-31T10:08:58Z</time>
      </trkpt>
      <trkpt lat="45.63553" lon="4.76916">
        <ele>203.9</ele>
        <time>2011-07-31T10:09:13Z</time>
      </trkpt>
      <trkpt lat="45.63531" lon="4.76916">
        <ele>203.9</ele>
        <time>2011-07-31T10:09:21Z</time>
      </trkpt>
      <trkpt lat="45.63529" lon="4.76916">
        <ele>203.9</ele>
        <time>2011-07-31T10:09:24Z</time>
      </trkpt>
      <trkpt lat="45.63524" lon="4.76916">
        <ele>203.8</ele>
        <time>2011-07-31T10:09:26Z</time>
      </trkpt>
      <trkpt lat="45.6351" lon="4.76913">
        <ele>202.8</ele>
        <time>2011-07-31T10:09:30Z</time>
      </trkpt>
      <trkpt lat="45.63472" lon="4.76909">
        <ele>202.6</ele>
        <time>2011-07-31T10:09:44Z</time>
      </trkpt>
      <trkpt lat="45.63465" lon="4.76905">
        <ele>202.3</ele>
        <time>2011-07-31T10:09:48Z</time>
      </trkpt>
      <trkpt lat="45.63447" lon="4.76894">
        <ele>202.9</ele>
        <time>2011-07-31T10:10:03Z</time>
      </trkpt>
      <trkpt lat="45.63432" lon="4.7689">
        <ele>203.5</ele>
        <time>2011-07-31T10:10:07Z</time>
      </trkpt>
      <trkpt lat="45.6342" lon="4.7689">
        <ele>203.9</ele>
        <time>2011-07-31T10:10:11Z</time>
      </trkpt>
      <trkpt lat="45.63379" lon="4.76894">
        <ele>203.7</ele>
        <time>2011-07-31T10:10:23Z</time>
      </trkpt>
      <trkpt lat="45.63367" lon="4.76898">
        <ele>203.5</ele>
        <time>2011-07-31T10:10:27Z</time>
      </trkpt>
      <trkpt lat="45.6334" lon="4.76903">
        <ele>203.1</ele>
        <time>2011-07-31T10:10:35Z</time>
      </trkpt>
      <trkpt lat="45.63331" lon="4.76905">
        <ele>203.3</ele>
        <time>2011-07-31T10:10:41Z</time>
      </trkpt>
      <trkpt lat="45.63303" lon="4.76909">
        <ele>204.3</ele>
        <time>2011-07-31T10:10:54Z</time>
      </trkpt>
      <trkpt lat="45.6329" lon="4.76916">
        <ele>203.9</ele>
        <time>2011-07-31T10:11:01Z</time>
      </trkpt>
      <trkpt lat="45.63288" lon="4.76916">
        <ele>203.9</ele>
        <time>2011-07-31T10:11:05Z</time>
      </trkpt>
      <trkpt lat="45.63277" lon="4.7692">
        <ele>204</ele>
        <time>2011-07-31T10:11:09Z</time>
      </trkpt>
      <trkpt lat="45.63252" lon="4.76926">
        <ele>203.4</ele>
        <time>2011-07-31T10:11:19Z</time>
      </trkpt>
      <trkpt lat="45.63244" lon="4.76928">
        <ele>203.2</ele>
        <time>2011-07-31T10:11:21Z</time>
      </trkpt>
      <trkpt lat="45.63221" lon="4.76935">
        <ele>202.9</ele>
        <time>2011-07-31T10:11:31Z</time>
      </trkpt>
      <trkpt lat="45.63189" lon="4.76941">
        <ele>203.1</ele>
        <time>2011-07-31T10:11:46Z</time>
      </trkpt>
      <trkpt lat="45.63177" lon="4.76941">
        <ele>202.9</ele>
        <time>2011-07-31T10:11:49Z</time>
      </trkpt>
      <trkpt lat="45.63147" lon="4.76946">
        <ele>203.3</ele>
        <time>2011-07-31T10:11:57Z</time>
      </trkpt>
      <trkpt lat="45.63122" lon="4.7695">
        <ele>202.5</ele>
        <time>2011-07-31T10:12:09Z</time>
      </trkpt>
      <trkpt lat="45.63095" lon="4.76952">
        <ele>202.3</ele>
        <time>2011-07-31T10:12:16Z</time>
      </trkpt>
      <trkpt lat="45.63074" lon="4.76952">
        <ele>202.5</ele>
        <time>2011-07-31T10:12:26Z</time>
      </trkpt>
      <trkpt lat="45.63056" lon="4.7695">
        <ele>203</ele>
        <time>2011-07-31T10:12:29Z</time>
      </trkpt>
      <trkpt lat="45.63029" lon="4.76948">
        <ele>202.9</ele>
        <time>2011-07-31T10:12:39Z</time>
      </trkpt>
      <trkpt lat="45.63012" lon="4.76948">
        <ele>202.9</ele>
        <time>2011-07-31T10:12:49Z</time>
      </trkpt>
      <trkpt lat="45.63001" lon="4.76946">
        <ele>202.9</ele>
        <time>2011-07-31T10:12:53Z</time>
      </trkpt>
      <trkpt lat="45.62981" lon="4.76943">
        <ele>202.3</ele>
        <time>2011-07-31T10:13:05Z</time>
      </trkpt>
      <trkpt lat="45.62967" lon="4.76941">
        <ele>201.9</ele>
        <time>2011-07-31T10:13:09Z</time>
      </trkpt>
      <trkpt lat="45.62942" lon="4.76935">
        <ele>200.6</ele>
        <time>2011-07-31T10:13:19Z</time>
      </trkpt>
      <trkpt lat="45.62929" lon="4.76933">
        <ele>200.3</ele>
        <time>2011-07-31T10:13:23Z</time>
      </trkpt>
      <trkpt lat="45.6292" lon="4.76937">
        <ele>200.1</ele>
        <time>2011-07-31T10:13:27Z</time>
      </trkpt>
      <trkpt lat="45.62902" lon="4.76952">
        <ele>200.7</ele>
        <time>2011-07-31T10:13:34Z</time>
      </trkpt>
      <trkpt lat="45.62893" lon="4.76971">
        <ele>201</ele>
        <time>2011-07-31T10:13:41Z</time>
      </trkpt>
      <trkpt lat="45.62888" lon="4.76995">
        <ele>201.8</ele>
        <time>2011-07-31T10:13:48Z</time>
      </trkpt>
      <trkpt lat="45.62878" lon="4.77049">
        <ele>202.7</ele>
        <time>2011-07-31T10:14:07Z</time>
      </trkpt>
      <trkpt lat="45.62878" lon="4.77049">
        <ele>202.7</ele>
        <time>2011-07-31T10:14:09Z</time>
      </trkpt>
      <trkpt lat="45.62875" lon="4.77061">
        <ele>203.1</ele>
        <time>2011-07-31T10:14:13Z</time>
      </trkpt>
      <trkpt lat="45.6287" lon="4.77096">
        <ele>203.8</ele>
        <time>2011-07-31T10:14:24Z</time>
      </trkpt>
      <trkpt lat="45.62865" lon="4.77115">
        <ele>204.1</ele>
        <time>2011-07-31T10:14:35Z</time>
      </trkpt>
      <trkpt lat="45.62865" lon="4.77115">
        <ele>204.1</ele>
        <time>2011-07-31T10:14:37Z</time>
      </trkpt>
      <trkpt lat="45.62861" lon="4.77132">
        <ele>204.8</ele>
        <time>2011-07-31T10:14:41Z</time>
      </trkpt>
      <trkpt lat="45.62853" lon="4.77158">
        <ele>205.7</ele>
        <time>2011-07-31T10:14:47Z</time>
      </trkpt>
      <trkpt lat="45.62849" lon="4.7718">
        <ele>206.5</ele>
        <time>2011-07-31T10:14:56Z</time>
      </trkpt>
      <trkpt lat="45.62847" lon="4.77197">
        <ele>207</ele>
        <time>2011-07-31T10:14:59Z</time>
      </trkpt>
      <trkpt lat="45.62843" lon="4.77255">
        <ele>208.5</ele>
        <time>2011-07-31T10:15:15Z</time>
      </trkpt>
      <trkpt lat="45.6284" lon="4.77272">
        <ele>209.5</ele>
        <time>2011-07-31T10:15:17Z</time>
      </trkpt>
      <trkpt lat="45.62839" lon="4.77287">
        <ele>210.1</ele>
        <time>2011-07-31T10:15:26Z</time>
      </trkpt>
      <trkpt lat="45.62839" lon="4.77287">
        <ele>210.1</ele>
        <time>2011-07-31T10:15:31Z</time>
      </trkpt>
      <trkpt lat="45.62825" lon="4.77332">
        <ele>211.9</ele>
        <time>2011-07-31T10:15:37Z</time>
      </trkpt>
      <trkpt lat="45.62825" lon="4.77332">
        <ele>211.9</ele>
        <time>2011-07-31T10:15:42Z</time>
      </trkpt>
      <trkpt lat="45.62825" lon="4.77332">
        <ele>211.9</ele>
        <time>2011-07-31T10:15:44Z</time>
      </trkpt>
      <trkpt lat="45.62811" lon="4.77358">
        <ele>213.6</ele>
        <time>2011-07-31T10:15:48Z</time>
      </trkpt>
      <trkpt lat="45.62806" lon="4.77379">
        <ele>214.6</ele>
        <time>2011-07-31T10:15:56Z</time>
      </trkpt>
      <trkpt lat="45.62806" lon="4.77379">
        <ele>214.6</ele>
        <time>2011-07-31T10:15:58Z</time>
      </trkpt>
      <trkpt lat="45.62806" lon="4.77379">
        <ele>214.6</ele>
        <time>2011-07-31T10:16:00Z</time>
      </trkpt>
      <trkpt lat="45.62806" lon="4.77379">
        <ele>214.6</ele>
        <time>2011-07-31T10:16:05Z</time>
      </trkpt>
      <trkpt lat="45.62793" lon="4.77418">
        <ele>217.5</ele>
        <time>2011-07-31T10:16:11Z</time>
      </trkpt>
      <trkpt lat="45.62793" lon="4.77418">
        <ele>217.5</ele>
        <time>2011-07-31T10:16:15Z</time>
      </trkpt>
      <trkpt lat="45.62793" lon="4.77418">
        <ele>217.5</ele>
        <time>2011-07-31T10:16:17Z</time>
      </trkpt>
      <trkpt lat="45.62784" lon="4.77454">
        <ele>220.5</ele>
        <time>2011-07-31T10:16:23Z</time>
      </trkpt>
      <trkpt lat="45.62766" lon="4.77508">
        <ele>224.5</ele>
        <time>2011-07-31T10:16:41Z</time>
      </trkpt>
      <trkpt lat="45.62766" lon="4.77508">
        <ele>224.5</ele>
        <time>2011-07-31T10:16:43Z</time>
      </trkpt>
      <trkpt lat="45.62766" lon="4.77508">
        <ele>224.5</ele>
        <time>2011-07-31T10:16:45Z</time>
      </trkpt>
      <trkpt lat="45.62766" lon="4.77508">
        <ele>224.5</ele>
        <time>2011-07-31T10:16:52Z</time>
      </trkpt>
      <trkpt lat="45.62758" lon="4.77546">
        <ele>229.3</ele>
        <time>2011-07-31T10:16:56Z</time>
      </trkpt>
      <trkpt lat="45.62758" lon="4.77546">
        <ele>229.3</ele>
        <time>2011-07-31T10:17:03Z</time>
      </trkpt>
      <trkpt lat="45.62758" lon="4.77546">
        <ele>229.3</ele>
        <time>2011-07-31T10:17:03Z</time>
      </trkpt>
      <trkpt lat="45.62754" lon="4.77587">
        <ele>232.9</ele>
        <time>2011-07-31T10:17:07Z</time>
      </trkpt>
      <trkpt lat="45.62754" lon="4.77587">
        <ele>232.9</ele>
        <time>2011-07-31T10:17:14Z</time>
      </trkpt>
      <trkpt lat="45.62754" lon="4.77587">
        <ele>232.9</ele>
        <time>2011-07-31T10:17:15Z</time>
      </trkpt>
      <trkpt lat="45.62754" lon="4.77587">
        <ele>232.9</ele>
        <time>2011-07-31T10:17:22Z</time>
      </trkpt>
      <trkpt lat="45.6275" lon="4.77632">
        <ele>232</ele>
        <time>2011-07-31T10:17:26Z</time>
      </trkpt>
      <trkpt lat="45.6275" lon="4.77632">
        <ele>232</ele>
        <time>2011-07-31T10:17:33Z</time>
      </trkpt>
      <trkpt lat="45.628" lon="4.77632">
        <ele>241.3</ele>
        <time>2011-07-31T10:17:40Z</time>
      </trkpt>
      <trkpt lat="45.62814" lon="4.77619">
        <ele>243.5</ele>
        <time>2011-07-31T10:17:43Z</time>
      </trkpt>
      <trkpt lat="45.62821" lon="4.77609">
        <ele>244.1</ele>
        <time>2011-07-31T10:17:51Z</time>
      </trkpt>
      <trkpt lat="45.62821" lon="4.77609">
        <ele>244.1</ele>
        <time>2011-07-31T10:17:56Z</time>
      </trkpt>
      <trkpt lat="45.62828" lon="4.77594">
        <ele>243.9</ele>
        <time>2011-07-31T10:18:00Z</time>
      </trkpt>
      <trkpt lat="45.62831" lon="4.77587">
        <ele>243.7</ele>
        <time>2011-07-31T10:18:03Z</time>
      </trkpt>
      <trkpt lat="45.62837" lon="4.7757">
        <ele>244.2</ele>
        <time>2011-07-31T10:18:13Z</time>
      </trkpt>
      <trkpt lat="45.62843" lon="4.77555">
        <ele>244.7</ele>
        <time>2011-07-31T10:18:18Z</time>
      </trkpt>
      <trkpt lat="45.62844" lon="4.77553">
        <ele>244.7</ele>
        <time>2011-07-31T10:18:24Z</time>
      </trkpt>
      <trkpt lat="45.62849" lon="4.77538">
        <ele>243.6</ele>
        <time>2011-07-31T10:18:28Z</time>
      </trkpt>
      <trkpt lat="45.62862" lon="4.77514">
        <ele>243.7</ele>
        <time>2011-07-31T10:18:40Z</time>
      </trkpt>
      <trkpt lat="45.62863" lon="4.77512">
        <ele>243.6</ele>
        <time>2011-07-31T10:18:44Z</time>
      </trkpt>
      <trkpt lat="45.6287" lon="4.77508">
        <ele>244.2</ele>
        <time>2011-07-31T10:18:48Z</time>
      </trkpt>
      <trkpt lat="45.62884" lon="4.7751">
        <ele>246.7</ele>
        <time>2011-07-31T10:18:56Z</time>
      </trkpt>
      <trkpt lat="45.62884" lon="4.7751">
        <ele>246.7</ele>
        <time>2011-07-31T10:19:00Z</time>
      </trkpt>
      <trkpt lat="45.62891" lon="4.77531">
        <ele>253.2</ele>
        <time>2011-07-31T10:19:08Z</time>
      </trkpt>
      <trkpt lat="45.62889" lon="4.77549">
        <ele>256.6</ele>
        <time>2011-07-31T10:19:11Z</time>
      </trkpt>
      <trkpt lat="45.62883" lon="4.77574">
        <ele>260</ele>
        <time>2011-07-31T10:19:23Z</time>
      </trkpt>
      <trkpt lat="45.62876" lon="4.776">
        <ele>260.3</ele>
        <time>2011-07-31T10:19:29Z</time>
      </trkpt>
      <trkpt lat="45.62865" lon="4.77632">
        <ele>259.2</ele>
        <time>2011-07-31T10:19:41Z</time>
      </trkpt>
      <trkpt lat="45.62865" lon="4.77632">
        <ele>259.2</ele>
        <time>2011-07-31T10:19:43Z</time>
      </trkpt>
      <trkpt lat="45.62857" lon="4.77656">
        <ele>260.5</ele>
        <time>2011-07-31T10:19:48Z</time>
      </trkpt>
      <trkpt lat="45.62855" lon="4.77658">
        <ele>260.4</ele>
        <time>2011-07-31T10:19:54Z</time>
      </trkpt>
      <trkpt lat="45.62855" lon="4.77658">
        <ele>260.4</ele>
        <time>2011-07-31T10:19:58Z</time>
      </trkpt>
      <trkpt lat="45.62855" lon="4.77658">
        <ele>260.4</ele>
        <time>2011-07-31T10:20:01Z</time>
      </trkpt>
      <trkpt lat="45.62855" lon="4.77658">
        <ele>260.4</ele>
        <time>2011-07-31T10:20:06Z</time>
      </trkpt>
      <trkpt lat="45.62845" lon="4.77694">
        <ele>264.1</ele>
        <time>2011-07-31T10:20:12Z</time>
      </trkpt>
      <trkpt lat="45.62845" lon="4.77694">
        <ele>264.1</ele>
        <time>2011-07-31T10:20:16Z</time>
      </trkpt>
      <trkpt lat="45.62845" lon="4.77694">
        <ele>264.1</ele>
        <time>2011-07-31T10:20:18Z</time>
      </trkpt>
      <trkpt lat="45.62845" lon="4.77694">
        <ele>264.1</ele>
        <time>2011-07-31T10:20:26Z</time>
      </trkpt>
      <trkpt lat="45.62851" lon="4.77733">
        <ele>268.4</ele>
        <time>2011-07-31T10:20:30Z</time>
      </trkpt>
      <trkpt lat="45.62851" lon="4.77733">
        <ele>268.4</ele>
        <time>2011-07-31T10:20:38Z</time>
      </trkpt>
      <trkpt lat="45.62858" lon="4.77744">
        <ele>270.2</ele>
        <time>2011-07-31T10:20:42Z</time>
      </trkpt>
      <trkpt lat="45.6287" lon="4.7775">
        <ele>272.6</ele>
        <time>2011-07-31T10:20:48Z</time>
      </trkpt>
      <trkpt lat="45.62885" lon="4.77757">
        <ele>273.3</ele>
        <time>2011-07-31T10:20:59Z</time>
      </trkpt>
      <trkpt lat="45.62885" lon="4.77757">
        <ele>273.3</ele>
        <time>2011-07-31T10:21:03Z</time>
      </trkpt>
      <trkpt lat="45.62908" lon="4.77765">
        <ele>273.2</ele>
        <time>2011-07-31T10:21:08Z</time>
      </trkpt>
      <trkpt lat="45.62908" lon="4.77765">
        <ele>273.2</ele>
        <time>2011-07-31T10:21:16Z</time>
      </trkpt>
      <trkpt lat="45.62936" lon="4.7777">
        <ele>275.2</ele>
        <time>2011-07-31T10:21:20Z</time>
      </trkpt>
      <trkpt lat="45.62949" lon="4.77772">
        <ele>276</ele>
        <time>2011-07-31T10:21:27Z</time>
      </trkpt>
      <trkpt lat="45.62949" lon="4.77772">
        <ele>276</ele>
        <time>2011-07-31T10:21:31Z</time>
      </trkpt>
      <trkpt lat="45.6296" lon="4.7778">
        <ele>274.9</ele>
        <time>2011-07-31T10:21:37Z</time>
      </trkpt>
      <trkpt lat="45.62969" lon="4.77785">
        <ele>273.8</ele>
        <time>2011-07-31T10:21:47Z</time>
      </trkpt>
      <trkpt lat="45.62983" lon="4.77789">
        <ele>273.5</ele>
        <time>2011-07-31T10:21:51Z</time>
      </trkpt>
      <trkpt lat="45.62988" lon="4.77789">
        <ele>273.8</ele>
        <time>2011-07-31T10:21:57Z</time>
      </trkpt>
      <trkpt lat="45.62996" lon="4.77791">
        <ele>273.9</ele>
        <time>2011-07-31T10:22:10Z</time>
      </trkpt>
      <trkpt lat="45.62996" lon="4.77791">
        <ele>273.9</ele>
        <time>2011-07-31T10:22:12Z</time>
      </trkpt>
      <trkpt lat="45.63006" lon="4.77787">
        <ele>275.5</ele>
        <time>2011-07-31T10:22:17Z</time>
      </trkpt>
      <trkpt lat="45.63006" lon="4.77787">
        <ele>275.5</ele>
        <time>2011-07-31T10:22:25Z</time>
      </trkpt>
      <trkpt lat="45.63006" lon="4.77787">
        <ele>275.5</ele>
        <time>2011-07-31T10:22:29Z</time>
      </trkpt>
      <trkpt lat="45.63016" lon="4.77787">
        <ele>276.3</ele>
        <time>2011-07-31T10:22:33Z</time>
      </trkpt>
      <trkpt lat="45.63016" lon="4.77787">
        <ele>276.3</ele>
        <time>2011-07-31T10:22:39Z</time>
      </trkpt>
      <trkpt lat="45.63016" lon="4.77787">
        <ele>276.3</ele>
        <time>2011-07-31T10:22:43Z</time>
      </trkpt>
      <trkpt lat="45.63016" lon="4.77787">
        <ele>276.3</ele>
        <time>2011-07-31T10:22:48Z</time>
      </trkpt>
      <trkpt lat="45.63042" lon="4.7778">
        <ele>279</ele>
        <time>2011-07-31T10:22:54Z</time>
      </trkpt>
      <trkpt lat="45.63059" lon="4.77776">
        <ele>280.3</ele>
        <time>2011-07-31T10:23:04Z</time>
      </trkpt>
      <trkpt lat="45.63073" lon="4.77774">
        <ele>281.4</ele>
        <time>2011-07-31T10:23:16Z</time>
      </trkpt>
      <trkpt lat="45.63073" lon="4.77774">
        <ele>281.4</ele>
        <time>2011-07-31T10:23:20Z</time>
      </trkpt>
      <trkpt lat="45.63083" lon="4.7777">
        <ele>282.3</ele>
        <time>2011-07-31T10:23:24Z</time>
      </trkpt>
      <trkpt lat="45.63098" lon="4.77765">
        <ele>282.7</ele>
        <time>2011-07-31T10:23:40Z</time>
      </trkpt>
      <trkpt lat="45.63098" lon="4.77765">
        <ele>282.7</ele>
        <time>2011-07-31T10:23:44Z</time>
      </trkpt>
      <trkpt lat="45.63098" lon="4.77765">
        <ele>282.7</ele>
        <time>2011-07-31T10:23:49Z</time>
      </trkpt>
      <trkpt lat="45.63108" lon="4.77765">
        <ele>282.9</ele>
        <time>2011-07-31T10:23:53Z</time>
      </trkpt>
      <trkpt lat="45.63108" lon="4.77765">
        <ele>282.9</ele>
        <time>2011-07-31T10:24:01Z</time>
      </trkpt>
      <trkpt lat="45.63117" lon="4.77763">
        <ele>282.9</ele>
        <time>2011-07-31T10:24:03Z</time>
      </trkpt>
      <trkpt lat="45.63126" lon="4.77761">
        <ele>282.7</ele>
        <time>2011-07-31T10:24:12Z</time>
      </trkpt>
      <trkpt lat="45.63135" lon="4.77759">
        <ele>282.4</ele>
        <time>2011-07-31T10:24:16Z</time>
      </trkpt>
      <trkpt lat="45.63135" lon="4.77759">
        <ele>282.4</ele>
        <time>2011-07-31T10:24:26Z</time>
      </trkpt>
      <trkpt lat="45.63135" lon="4.77759">
        <ele>282.4</ele>
        <time>2011-07-31T10:24:30Z</time>
      </trkpt>
      <trkpt lat="45.63135" lon="4.77759">
        <ele>282.4</ele>
        <time>2011-07-31T10:24:34Z</time>
      </trkpt>
      <trkpt lat="45.6316" lon="4.7774">
        <ele>281.2</ele>
        <time>2011-07-31T10:24:40Z</time>
      </trkpt>
      <trkpt lat="45.63178" lon="4.77731">
        <ele>280.7</ele>
        <time>2011-07-31T10:24:45Z</time>
      </trkpt>
      <trkpt lat="45.63182" lon="4.77729">
        <ele>280.6</ele>
        <time>2011-07-31T10:24:50Z</time>
      </trkpt>
      <trkpt lat="45.6321" lon="4.77718">
        <ele>279.3</ele>
        <time>2011-07-31T10:24:55Z</time>
      </trkpt>
      <trkpt lat="45.63236" lon="4.77707">
        <ele>278.5</ele>
        <time>2011-07-31T10:25:04Z</time>
      </trkpt>
      <trkpt lat="45.63236" lon="4.77707">
        <ele>278.5</ele>
        <time>2011-07-31T10:25:07Z</time>
      </trkpt>
      <trkpt lat="45.63263" lon="4.77703">
        <ele>278.5</ele>
        <time>2011-07-31T10:25:12Z</time>
      </trkpt>
      <trkpt lat="45.63263" lon="4.77703">
        <ele>278.5</ele>
        <time>2011-07-31T10:25:20Z</time>
      </trkpt>
      <trkpt lat="45.63263" lon="4.77703">
        <ele>278.5</ele>
        <time>2011-07-31T10:25:25Z</time>
      </trkpt>
      <trkpt lat="45.63292" lon="4.77699">
        <ele>278.3</ele>
        <time>2011-07-31T10:25:30Z</time>
      </trkpt>
      <trkpt lat="45.63292" lon="4.77699">
        <ele>278.3</ele>
        <time>2011-07-31T10:25:35Z</time>
      </trkpt>
      <trkpt lat="45.63292" lon="4.77699">
        <ele>278.3</ele>
        <time>2011-07-31T10:25:37Z</time>
      </trkpt>
      <trkpt lat="45.6332" lon="4.77697">
        <ele>277.7</ele>
        <time>2011-07-31T10:25:41Z</time>
      </trkpt>
      <trkpt lat="45.6332" lon="4.77697">
        <ele>277.7</ele>
        <time>2011-07-31T10:25:50Z</time>
      </trkpt>
      <trkpt lat="45.6332" lon="4.77697">
        <ele>277.7</ele>
        <time>2011-07-31T10:25:57Z</time>
      </trkpt>
      <trkpt lat="45.63349" lon="4.77694">
        <ele>277</ele>
        <time>2011-07-31T10:26:02Z</time>
      </trkpt>
      <trkpt lat="45.63349" lon="4.77694">
        <ele>277</ele>
        <time>2011-07-31T10:26:08Z</time>
      </trkpt>
      <trkpt lat="45.63394" lon="4.77701">
        <ele>277.6</ele>
        <time>2011-07-31T10:26:14Z</time>
      </trkpt>
      <trkpt lat="45.63394" lon="4.77701">
        <ele>277.6</ele>
        <time>2011-07-31T10:26:18Z</time>
      </trkpt>
      <trkpt lat="45.6341" lon="4.77722">
        <ele>278.5</ele>
        <time>2011-07-31T10:26:24Z</time>
      </trkpt>
      <trkpt lat="45.6341" lon="4.77722">
        <ele>278.5</ele>
        <time>2011-07-31T10:26:29Z</time>
      </trkpt>
      <trkpt lat="45.6341" lon="4.77722">
        <ele>278.5</ele>
        <time>2011-07-31T10:26:33Z</time>
      </trkpt>
      <trkpt lat="45.63433" lon="4.7775">
        <ele>279.6</ele>
        <time>2011-07-31T10:26:38Z</time>
      </trkpt>
      <trkpt lat="45.63433" lon="4.7775">
        <ele>279.6</ele>
        <time>2011-07-31T10:26:47Z</time>
      </trkpt>
      <trkpt lat="45.63433" lon="4.7775">
        <ele>279.6</ele>
        <time>2011-07-31T10:26:52Z</time>
      </trkpt>
      <trkpt lat="45.63452" lon="4.77778">
        <ele>281</ele>
        <time>2011-07-31T10:26:56Z</time>
      </trkpt>
      <trkpt lat="45.63452" lon="4.77778">
        <ele>281</ele>
        <time>2011-07-31T10:27:02Z</time>
      </trkpt>
      <trkpt lat="45.63468" lon="4.7781">
        <ele>283.2</ele>
        <time>2011-07-31T10:27:09Z</time>
      </trkpt>
      <trkpt lat="45.63468" lon="4.7781">
        <ele>283.2</ele>
        <time>2011-07-31T10:27:13Z</time>
      </trkpt>
      <trkpt lat="45.63468" lon="4.7781">
        <ele>283.2</ele>
        <time>2011-07-31T10:27:15Z</time>
      </trkpt>
      <trkpt lat="45.6349" lon="4.7784">
        <ele>284.3</ele>
        <time>2011-07-31T10:27:22Z</time>
      </trkpt>
      <trkpt lat="45.63507" lon="4.77873">
        <ele>285.4</ele>
        <time>2011-07-31T10:27:29Z</time>
      </trkpt>
      <trkpt lat="45.63508" lon="4.77877">
        <ele>285.6</ele>
        <time>2011-07-31T10:27:33Z</time>
      </trkpt>
      <trkpt lat="45.6351" lon="4.77903">
        <ele>286.5</ele>
        <time>2011-07-31T10:27:37Z</time>
      </trkpt>
      <trkpt lat="45.63519" lon="4.77939">
        <ele>287</ele>
        <time>2011-07-31T10:27:48Z</time>
      </trkpt>
      <trkpt lat="45.63519" lon="4.77939">
        <ele>287</ele>
        <time>2011-07-31T10:27:50Z</time>
      </trkpt>
      <trkpt lat="45.63519" lon="4.77939">
        <ele>287</ele>
        <time>2011-07-31T10:27:53Z</time>
      </trkpt>
      <trkpt lat="45.63519" lon="4.77939">
        <ele>287</ele>
        <time>2011-07-31T10:28:02Z</time>
      </trkpt>
      <trkpt lat="45.63528" lon="4.77976">
        <ele>286.9</ele>
        <time>2011-07-31T10:28:06Z</time>
      </trkpt>
      <trkpt lat="45.63528" lon="4.77976">
        <ele>286.9</ele>
        <time>2011-07-31T10:28:14Z</time>
      </trkpt>
      <trkpt lat="45.63528" lon="4.78016">
        <ele>286</ele>
        <time>2011-07-31T10:28:19Z</time>
      </trkpt>
      <trkpt lat="45.63528" lon="4.78016">
        <ele>286</ele>
        <time>2011-07-31T10:28:26Z</time>
      </trkpt>
      <trkpt lat="45.63528" lon="4.78016">
        <ele>286</ele>
        <time>2011-07-31T10:28:28Z</time>
      </trkpt>
      <trkpt lat="45.63528" lon="4.78016">
        <ele>286</ele>
        <time>2011-07-31T10:28:38Z</time>
      </trkpt>
    </trkseg>
  </trk>
</gpx>